createdAt,value
2018-10-05T00:00:54.738Z,12.06
2018-10-05T00:03:25.070Z,12.08
2018-10-05T00:08:39.966Z,12.13
2018-10-05T00:11:10.377Z,12.16
2018-10-05T00:13:40.733Z,12.12
2018-10-05T00:16:11.048Z,12.21
2018-10-05T00:18:41.394Z,12.14
2018-10-05T00:21:11.762Z,12.18
2018-10-05T00:23:42.125Z,12.19
2018-10-05T00:26:12.421Z,12.23
2018-10-05T00:28:42.765Z,12.20
2018-10-05T00:31:13.101Z,12.24
2018-10-05T00:33:43.412Z,12.24
2018-10-05T00:36:13.721Z,12.17
2018-10-05T00:38:44.097Z,12.30
2018-10-05T00:41:14.472Z,12.27
2018-10-05T00:43:44.833Z,12.28
2018-10-05T00:46:15.230Z,12.28
2018-10-05T00:48:45.504Z,12.22
2018-10-05T00:51:15.860Z,12.21
2018-10-05T00:53:46.175Z,12.22
2018-10-05T00:56:16.532Z,12.22
2018-10-05T00:58:46.807Z,12.22
2018-10-05T01:01:17.147Z,12.21
2018-10-05T01:03:47.438Z,12.26
2018-10-05T01:06:17.804Z,12.26
2018-10-05T01:08:48.111Z,12.17
2018-10-05T01:11:18.485Z,12.11
2018-10-05T01:13:48.805Z,12.13
2018-10-05T01:16:19.120Z,12.10
2018-10-05T01:18:49.436Z,12.08
2018-10-05T01:21:19.840Z,12.11
2018-10-05T01:23:50.167Z,12.17
2018-10-05T01:26:20.558Z,12.18
2018-10-05T01:28:50.832Z,12.11
2018-10-05T01:31:21.161Z,12.17
2018-10-05T01:33:51.611Z,12.13
2018-10-05T01:36:21.870Z,12.21
2018-10-05T01:38:52.293Z,12.30
2018-10-05T01:41:22.586Z,12.19
2018-10-05T01:43:52.927Z,12.27
2018-10-05T01:46:23.251Z,12.30
2018-10-05T01:48:53.623Z,12.36
2018-10-05T01:51:32.615Z,12.30
2018-10-05T01:54:04.229Z,12.36
2018-10-05T01:56:35.212Z,12.34
2018-10-05T01:59:05.611Z,12.38
2018-10-05T02:01:36.010Z,12.30
2018-10-05T02:04:06.371Z,12.36
2018-10-05T02:06:36.654Z,12.34
2018-10-05T02:09:07.356Z,12.34
2018-10-05T02:11:37.675Z,12.34
2018-10-05T02:14:08.048Z,12.32
2018-10-05T02:16:38.329Z,12.33
2018-10-05T02:19:08.684Z,12.29
2018-10-05T02:21:38.954Z,12.31
2018-10-05T02:24:09.282Z,12.21
2018-10-05T02:26:39.644Z,12.28
2018-10-05T02:29:10.035Z,12.25
2018-10-05T02:31:40.321Z,12.23
2018-10-05T02:34:10.654Z,12.15
2018-10-05T02:36:41.189Z,12.04
2018-10-05T02:39:12.992Z,12.00
2018-10-05T02:41:43.517Z,11.87
2018-10-05T02:44:13.789Z,11.80
2018-10-05T02:46:44.155Z,11.72
2018-10-05T02:49:14.511Z,11.74
2018-10-05T02:51:44.826Z,11.71
2018-10-05T02:54:15.093Z,11.77
2018-10-05T02:56:45.376Z,11.79
2018-10-05T02:59:15.725Z,11.74
2018-10-05T03:02:02.815Z,11.79
2018-10-05T03:04:33.245Z,11.69
2018-10-05T03:07:03.628Z,11.76
2018-10-05T03:12:36.467Z,11.59
2018-10-05T03:15:06.817Z,11.57
2018-10-05T03:17:37.191Z,11.57
2018-10-05T03:20:07.566Z,11.61
2018-10-05T03:22:37.900Z,11.46
2018-10-05T03:25:08.244Z,11.53
2018-10-05T03:27:38.638Z,11.48
2018-10-05T03:30:08.965Z,11.47
2018-10-05T03:32:39.414Z,11.55
2018-10-05T03:35:09.738Z,11.52
2018-10-05T03:37:40.096Z,11.51
2018-10-05T03:40:10.428Z,11.44
2018-10-05T03:42:40.786Z,11.39
2018-10-05T03:45:11.207Z,11.34
2018-10-05T03:47:41.553Z,11.24
2018-10-05T03:50:11.831Z,11.19
2018-10-05T03:52:42.198Z,11.11
2018-10-05T03:55:12.542Z,11.07
2018-10-05T03:57:42.931Z,11.02
2018-10-05T04:00:13.259Z,10.96
2018-10-05T04:02:43.621Z,10.90
2018-10-05T04:05:13.929Z,10.87
2018-10-05T04:07:44.310Z,10.84
2018-10-05T04:10:14.638Z,10.81
2018-10-05T04:12:45.028Z,10.82
2018-10-05T04:15:15.337Z,10.85
2018-10-05T04:17:45.675Z,10.86
2018-10-05T04:20:15.967Z,10.86
2018-10-05T04:22:46.345Z,10.85
2018-10-05T04:25:16.637Z,10.83
2018-10-05T04:27:46.960Z,10.87
2018-10-05T04:30:17.264Z,10.86
2018-10-05T04:33:18.761Z,10.90
2018-10-05T04:35:49.225Z,10.87
2018-10-05T04:38:19.464Z,10.89
2018-10-05T04:40:49.770Z,10.84
2018-10-05T04:43:20.098Z,10.81
2018-10-05T04:45:50.433Z,10.78
2018-10-05T04:48:20.719Z,10.74
2018-10-05T04:50:51.080Z,10.65
2018-10-05T04:53:21.410Z,10.60
2018-10-05T04:55:51.697Z,10.57
2018-10-05T04:58:22.032Z,10.64
2018-10-05T05:00:52.364Z,10.66
2018-10-05T05:03:22.725Z,10.62
2018-10-05T05:05:53.112Z,10.54
2018-10-05T05:08:23.460Z,10.52
2018-10-05T05:10:53.871Z,10.44
2018-10-05T05:13:24.226Z,10.44
2018-10-05T05:16:09.198Z,10.49
2018-10-05T05:18:39.494Z,10.71
2018-10-05T05:21:09.844Z,10.72
2018-10-05T05:23:40.131Z,10.66
2018-10-05T05:26:10.454Z,10.64
2018-10-05T05:28:40.763Z,10.63
2018-10-05T05:31:11.102Z,10.68
2018-10-05T05:33:41.525Z,10.77
2018-10-05T05:36:11.839Z,10.83
2018-10-05T05:38:42.176Z,10.77
2018-10-05T05:41:12.549Z,10.73
2018-10-05T05:43:42.823Z,10.71
2018-10-05T05:46:13.191Z,10.70
2018-10-05T05:48:43.548Z,10.72
2018-10-05T05:51:13.906Z,10.65
2018-10-05T05:53:44.204Z,10.61
2018-10-05T05:56:14.571Z,10.60
2018-10-05T05:58:45.190Z,10.57
2018-10-05T06:01:15.554Z,10.52
2018-10-05T06:03:45.925Z,10.62
2018-10-05T06:06:16.273Z,10.60
2018-10-05T06:08:46.715Z,10.84
2018-10-05T06:11:17.037Z,11.01
2018-10-05T06:13:47.366Z,11.09
2018-10-05T06:16:17.750Z,11.18
2018-10-05T06:18:48.053Z,11.36
2018-10-05T06:21:18.404Z,11.46
2018-10-05T06:23:48.792Z,11.69
2018-10-05T06:26:19.093Z,11.81
2018-10-05T06:28:49.442Z,11.90
2018-10-05T06:31:19.754Z,12.13
2018-10-05T06:33:50.134Z,12.26
2018-10-05T06:36:20.426Z,12.46
2018-10-05T06:38:50.849Z,12.87
2018-10-05T06:41:21.164Z,13.99
2018-10-05T06:43:51.694Z,15.65
2018-10-05T06:46:22.014Z,16.62
2018-10-05T06:48:52.311Z,16.84
2018-10-05T06:51:22.668Z,16.85
2018-10-05T06:53:53.035Z,16.46
2018-10-05T06:56:23.360Z,16.60
2018-10-05T06:58:53.668Z,16.35
2018-10-05T07:01:24.062Z,16.51
2018-10-05T07:03:54.416Z,16.67
2018-10-05T07:06:24.817Z,16.73
2018-10-05T07:08:55.126Z,16.91
2018-10-05T07:11:25.527Z,17.20
2018-10-05T07:13:55.830Z,17.47
2018-10-05T07:16:26.225Z,17.80
2018-10-05T07:18:56.651Z,18.23
2018-10-05T07:21:27.051Z,18.62
2018-10-05T07:23:57.322Z,19.02
2018-10-05T07:26:27.663Z,19.37
2018-10-05T07:28:58.137Z,19.70
2018-10-05T07:31:28.432Z,20.31
2018-10-05T07:33:58.731Z,21.01
2018-10-05T07:36:29.079Z,21.36
2018-10-05T07:38:59.403Z,21.40
2018-10-05T07:41:30.086Z,21.64
2018-10-05T07:44:00.462Z,21.86
2018-10-05T07:46:30.853Z,22.13
2018-10-05T07:49:01.146Z,22.30
2018-10-05T07:51:31.556Z,22.41
2018-10-05T07:54:01.995Z,22.61
2018-10-05T07:56:32.371Z,22.82
2018-10-05T07:59:02.734Z,23.04
2018-10-05T08:01:33.071Z,23.20
2018-10-05T08:04:03.386Z,23.51
2018-10-05T08:06:33.799Z,23.72
2018-10-05T08:09:05.496Z,23.83
2018-10-05T08:11:35.928Z,23.95
2018-10-05T08:14:06.250Z,24.24
2018-10-05T08:16:36.623Z,24.48
2018-10-05T08:19:07.045Z,24.70
2018-10-05T08:21:37.439Z,24.97
2018-10-05T08:24:08.186Z,25.17
2018-10-05T08:26:38.505Z,25.15
2018-10-05T08:29:08.875Z,24.85
2018-10-05T08:31:39.208Z,24.69
2018-10-05T08:34:09.600Z,24.93
2018-10-05T08:36:39.899Z,25.10
2018-10-05T08:39:11.564Z,25.14
2018-10-05T08:41:42.014Z,24.74
2018-10-05T08:44:12.684Z,24.83
2018-10-05T08:46:43.096Z,24.71
2018-10-05T08:49:13.448Z,24.67
2018-10-05T08:51:43.824Z,24.40
2018-10-05T08:54:14.170Z,24.39
2018-10-05T08:56:44.466Z,24.74
2018-10-05T08:59:14.773Z,24.63
2018-10-05T09:01:45.081Z,24.36
2018-10-05T09:04:15.422Z,24.40
2018-10-05T09:06:45.761Z,24.13
2018-10-05T09:09:16.166Z,23.56
2018-10-05T09:11:46.479Z,23.72
2018-10-05T09:14:16.890Z,23.20
2018-10-05T09:16:47.199Z,22.94
2018-10-05T09:19:17.522Z,22.74
2018-10-05T09:21:47.848Z,22.78
2018-10-05T09:24:18.311Z,23.51
2018-10-05T09:26:48.579Z,23.48
2018-10-05T09:29:18.974Z,23.82
2018-10-05T09:31:49.259Z,23.41
2018-10-05T09:34:19.535Z,23.74
2018-10-05T09:36:49.971Z,23.66
2018-10-05T09:39:20.358Z,23.83
2018-10-05T09:41:50.732Z,23.81
2018-10-05T09:44:21.095Z,24.34
2018-10-05T09:46:51.396Z,24.85
2018-10-05T09:49:21.830Z,25.14
2018-10-05T09:51:52.189Z,25.11
2018-10-05T09:54:22.516Z,25.20
2018-10-05T09:56:52.815Z,25.13
2018-10-05T09:59:23.229Z,24.95
2018-10-05T10:01:58.656Z,24.84
2018-10-05T10:04:28.939Z,24.74
2018-10-05T10:06:59.327Z,24.11
2018-10-05T10:09:29.779Z,24.00
2018-10-05T10:12:00.138Z,23.99
2018-10-05T10:14:30.550Z,24.39
2018-10-05T10:17:00.908Z,24.91
2018-10-05T10:19:31.265Z,25.56
2018-10-05T10:22:01.674Z,25.70
2018-10-05T10:24:31.984Z,25.92
2018-10-05T10:27:02.350Z,25.46
2018-10-05T10:29:33.127Z,25.40
2018-10-05T10:32:03.385Z,24.95
2018-10-05T10:34:33.750Z,24.75
2018-10-05T10:37:04.068Z,24.99
2018-10-05T10:39:34.475Z,24.53
2018-10-05T10:42:04.769Z,24.36
2018-10-05T10:44:35.158Z,24.27
2018-10-05T10:47:05.582Z,24.52
2018-10-05T10:49:35.934Z,24.97
2018-10-05T10:52:06.477Z,24.76
2018-10-05T10:54:36.855Z,24.83
2018-10-05T10:57:07.349Z,24.96
2018-10-05T10:59:37.672Z,25.21
2018-10-05T11:02:08.031Z,25.40
2018-10-05T11:04:38.520Z,24.99
2018-10-05T11:07:08.877Z,25.00
2018-10-05T11:09:39.274Z,25.05
2018-10-05T11:12:09.590Z,25.51
2018-10-05T11:14:39.898Z,25.46
2018-10-05T11:17:10.360Z,25.67
2018-10-05T11:19:40.699Z,25.65
2018-10-05T11:22:11.009Z,25.48
2018-10-05T11:24:41.366Z,25.52
2018-10-05T11:27:12.059Z,25.52
2018-10-05T11:29:42.460Z,25.29
2018-10-05T11:32:12.806Z,25.51
2018-10-05T11:34:43.156Z,26.07
2018-10-05T11:37:13.590Z,26.42
2018-10-05T11:39:43.956Z,25.96
2018-10-05T11:42:14.401Z,25.87
2018-10-05T11:44:44.784Z,25.88
2018-10-05T11:47:15.203Z,26.17
2018-10-05T11:49:45.577Z,26.43
2018-10-05T11:52:15.901Z,26.07
2018-10-05T11:54:46.184Z,25.85
2018-10-05T11:57:16.545Z,25.98
2018-10-05T11:59:46.913Z,26.15
2018-10-05T12:02:17.313Z,26.23
2018-10-05T12:04:47.633Z,25.83
2018-10-05T12:07:18.008Z,25.61
2018-10-05T12:09:48.320Z,25.47
2018-10-05T12:12:18.664Z,25.75
2018-10-05T12:14:48.936Z,25.76
2018-10-05T12:17:19.279Z,25.96
2018-10-05T12:19:49.687Z,26.16
2018-10-05T12:22:20.034Z,26.49
2018-10-05T12:24:50.451Z,26.69
2018-10-05T12:27:20.717Z,26.66
2018-10-05T12:29:51.041Z,26.60
2018-10-05T12:32:21.414Z,26.29
2018-10-05T12:34:51.744Z,26.46
2018-10-05T12:37:22.113Z,26.69
2018-10-05T12:39:52.396Z,27.08
2018-10-05T12:42:22.784Z,27.11
2018-10-05T12:44:53.032Z,26.79
2018-10-05T12:47:23.403Z,26.62
2018-10-05T12:49:53.728Z,26.33
2018-10-05T12:52:24.600Z,26.33
2018-10-05T12:54:54.931Z,26.48
2018-10-05T12:57:25.215Z,26.81
2018-10-05T12:59:55.504Z,26.98
2018-10-05T13:02:25.889Z,26.80
2018-10-05T13:04:56.178Z,27.36
2018-10-05T13:07:26.560Z,27.85
2018-10-05T13:09:56.899Z,28.03
2018-10-05T13:12:27.224Z,28.02
2018-10-05T13:14:57.561Z,27.92
2018-10-05T13:17:27.875Z,27.70
2018-10-05T13:19:58.275Z,27.56
2018-10-05T13:22:28.593Z,27.34
2018-10-05T13:24:58.896Z,27.44
2018-10-05T13:27:29.323Z,27.64
2018-10-05T13:29:59.673Z,27.62
2018-10-05T13:32:29.986Z,27.78
2018-10-05T13:35:00.319Z,27.58
2018-10-05T13:37:30.707Z,27.23
2018-10-05T13:40:01.045Z,27.04
2018-10-05T13:42:31.382Z,26.61
2018-10-05T13:45:01.703Z,26.62
2018-10-05T13:47:32.039Z,26.10
2018-10-05T13:50:02.402Z,25.73
2018-10-05T13:52:32.758Z,26.09
2018-10-05T13:55:03.064Z,26.27
2018-10-05T13:57:33.411Z,26.37
2018-10-05T14:00:03.899Z,26.80
2018-10-05T14:02:35.234Z,27.15
2018-10-05T14:05:05.556Z,26.77
2018-10-05T14:07:35.905Z,26.82
2018-10-05T14:10:06.469Z,26.68
2018-10-05T14:12:36.805Z,26.82
2018-10-05T14:15:07.160Z,27.03
2018-10-05T14:17:37.526Z,26.49
2018-10-05T14:20:07.879Z,26.31
2018-10-05T14:22:38.218Z,26.06
2018-10-05T14:25:08.664Z,25.90
2018-10-05T14:27:39.083Z,26.10
2018-10-05T14:30:09.417Z,26.08
2018-10-05T14:32:39.735Z,26.32
2018-10-05T14:35:10.070Z,26.35
2018-10-05T14:37:40.374Z,26.27
2018-10-05T14:40:10.728Z,26.38
2018-10-05T14:42:41.091Z,26.53
2018-10-05T14:45:11.443Z,26.60
2018-10-05T14:47:41.809Z,26.40
2018-10-05T14:50:12.184Z,26.43
2018-10-05T14:52:42.516Z,26.48
2018-10-05T14:55:12.805Z,26.74
2018-10-05T14:57:43.188Z,26.93
2018-10-05T15:00:13.508Z,26.47
2018-10-05T15:02:43.884Z,26.46
2018-10-05T15:05:14.219Z,26.17
2018-10-05T15:07:44.632Z,26.06
2018-10-05T15:10:14.968Z,25.83
2018-10-05T15:12:45.356Z,25.77
2018-10-05T15:15:15.767Z,25.88
2018-10-05T15:17:46.084Z,25.96
2018-10-05T15:20:16.467Z,25.80
2018-10-05T15:22:46.803Z,25.86
2018-10-05T15:25:17.208Z,26.00
2018-10-05T15:27:47.570Z,26.13
2018-10-05T15:30:17.958Z,26.52
2018-10-05T15:32:48.314Z,26.57
2018-10-05T15:35:18.604Z,26.50
2018-10-05T15:37:48.970Z,26.19
2018-10-05T15:40:19.253Z,25.98
2018-10-05T15:42:49.630Z,25.82
2018-10-05T15:45:19.953Z,26.02
2018-10-05T15:47:50.343Z,26.07
2018-10-05T15:50:20.701Z,26.19
2018-10-05T15:52:51.079Z,26.24
2018-10-05T15:55:21.463Z,26.18
2018-10-05T15:57:51.785Z,26.14
2018-10-05T16:00:22.144Z,26.05
2018-10-05T16:02:52.418Z,25.82
2018-10-05T16:05:22.777Z,25.51
2018-10-05T16:07:53.459Z,25.38
2018-10-05T16:10:23.802Z,25.27
2018-10-05T16:12:54.269Z,25.16
2018-10-05T16:15:24.583Z,24.85
2018-10-05T16:17:54.936Z,24.69
2018-10-05T16:20:25.330Z,24.52
2018-10-05T16:22:55.673Z,24.45
2018-10-05T16:25:26.048Z,24.29
2018-10-05T16:27:56.404Z,24.20
2018-10-05T16:30:26.727Z,24.03
2018-10-05T16:32:57.056Z,23.89
2018-10-05T16:35:27.388Z,23.74
2018-10-05T16:37:57.830Z,23.60
2018-10-05T16:40:28.186Z,23.45
2018-10-05T16:42:58.524Z,23.26
2018-10-05T16:45:28.849Z,23.00
2018-10-05T16:47:59.161Z,22.90
2018-10-05T16:50:29.473Z,22.65
2018-10-05T16:52:59.793Z,22.50
2018-10-05T16:55:30.106Z,22.22
2018-10-05T16:58:00.482Z,22.04
2018-10-05T17:00:30.791Z,21.91
2018-10-05T17:03:01.123Z,21.73
2018-10-05T17:05:31.451Z,21.51
2018-10-05T17:08:01.860Z,21.45
2018-10-05T17:10:32.299Z,21.34
2018-10-05T17:13:02.525Z,21.22
2018-10-05T17:15:32.817Z,20.99
2018-10-05T17:18:03.382Z,20.98
2018-10-05T17:20:33.731Z,20.89
2018-10-05T17:23:04.123Z,20.67
2018-10-05T17:25:34.469Z,20.68
2018-10-05T17:28:04.822Z,20.65
2018-10-05T17:30:35.092Z,20.58
2018-10-05T17:33:05.450Z,20.45
2018-10-05T17:35:35.731Z,20.32
2018-10-05T17:38:06.076Z,20.31
2018-10-05T17:40:36.435Z,20.23
2018-10-05T17:43:06.833Z,20.19
2018-10-05T17:45:37.196Z,20.09
2018-10-05T17:48:07.808Z,20.01
2018-10-05T17:50:52.751Z,19.92
2018-10-05T17:53:23.161Z,19.79
2018-10-05T17:55:53.672Z,19.84
2018-10-05T17:58:23.960Z,19.75
2018-10-05T18:00:54.312Z,19.67
2018-10-05T18:03:24.646Z,19.58
2018-10-05T18:05:55.012Z,19.54
2018-10-05T18:08:25.396Z,19.54
2018-10-05T18:10:55.692Z,19.45
2018-10-05T18:13:25.954Z,19.33
2018-10-05T18:15:56.273Z,19.32
2018-10-05T18:18:26.577Z,19.23
2018-10-05T18:20:56.942Z,19.12
2018-10-05T18:23:27.255Z,18.98
2018-10-05T18:25:57.653Z,18.85
2018-10-05T18:28:27.883Z,18.81
2018-10-05T18:30:58.226Z,18.69
2018-10-05T18:33:28.497Z,18.64
2018-10-05T18:35:58.942Z,18.59
2018-10-05T18:38:29.282Z,18.42
2018-10-05T18:40:59.649Z,18.36
2018-10-05T18:43:29.962Z,18.35
2018-10-05T18:46:00.385Z,18.34
2018-10-05T18:48:31.281Z,18.30
2018-10-05T18:51:01.652Z,18.26
2018-10-05T18:53:31.996Z,18.27
2018-10-05T18:56:19.116Z,18.29
2018-10-05T18:58:49.486Z,18.28
2018-10-05T19:01:19.907Z,18.26
2018-10-05T19:03:50.389Z,18.23
2018-10-05T19:06:20.722Z,18.19
2018-10-05T19:08:51.135Z,18.19
2018-10-05T19:11:21.513Z,18.21
2018-10-05T19:13:51.844Z,18.14
2018-10-05T19:16:22.225Z,18.05
2018-10-05T19:18:52.648Z,18.03
2018-10-05T19:21:23.188Z,18.01
2018-10-05T19:23:53.534Z,17.95
2018-10-05T19:26:24.252Z,17.96
2018-10-05T19:28:54.388Z,17.95
2018-10-05T19:31:24.810Z,17.94
2018-10-05T19:33:55.189Z,17.87
2018-10-05T19:36:25.640Z,17.86
2018-10-05T19:38:55.921Z,17.84
2018-10-05T19:41:26.320Z,17.79
2018-10-05T19:43:56.611Z,17.78
2018-10-05T19:46:27.035Z,17.76
2018-10-05T19:48:57.400Z,17.71
2018-10-05T19:51:27.804Z,17.70
2018-10-05T19:53:58.230Z,17.68
2018-10-05T19:56:35.278Z,17.65
2018-10-05T19:59:05.689Z,17.62
2018-10-05T20:01:36.101Z,17.60
2018-10-05T20:04:06.431Z,17.53
2018-10-05T20:06:36.839Z,17.60
2018-10-05T20:09:08.847Z,17.58
2018-10-05T20:11:39.190Z,17.55
2018-10-05T20:14:09.543Z,17.53
2018-10-05T20:16:39.933Z,17.48
2018-10-05T20:19:10.331Z,17.47
2018-10-05T20:21:40.678Z,17.44
2018-10-05T20:24:11.078Z,17.40
2018-10-05T20:26:41.422Z,17.40
2018-10-05T20:29:11.776Z,17.38
2018-10-05T20:31:42.122Z,17.33
2018-10-05T20:34:12.584Z,17.26
2018-10-05T20:36:43.106Z,17.30
2018-10-05T20:39:13.353Z,17.29
2018-10-05T20:41:43.663Z,17.24
2018-10-05T20:44:14.024Z,17.28
2018-10-05T20:46:44.435Z,17.22
2018-10-05T20:49:14.742Z,17.17
2018-10-05T20:51:45.124Z,17.12
2018-10-05T20:54:15.381Z,17.08
2018-10-05T20:56:45.715Z,17.11
2018-10-05T20:59:16.082Z,17.11
2018-10-05T21:01:46.419Z,17.05
2018-10-05T21:04:16.830Z,17.06
2018-10-05T21:06:47.233Z,17.07
2018-10-05T21:09:17.612Z,17.05
2018-10-05T21:11:47.963Z,17.06
2018-10-05T21:14:18.337Z,17.01
2018-10-05T21:16:48.682Z,17.06
2018-10-05T21:19:19.039Z,17.07
2018-10-05T21:21:49.400Z,17.05
2018-10-05T21:24:19.711Z,16.99
2018-10-05T21:26:50.122Z,17.04
2018-10-05T21:29:20.395Z,16.92
2018-10-05T21:31:50.744Z,16.95
2018-10-05T21:34:21.083Z,16.97
2018-10-05T21:36:51.467Z,16.92
2018-10-05T21:39:21.826Z,16.89
2018-10-05T21:41:52.141Z,16.90
2018-10-05T21:44:22.476Z,16.89
2018-10-05T21:46:52.824Z,16.83
2018-10-05T21:49:23.106Z,16.80
2018-10-05T21:51:53.440Z,16.78
2018-10-05T21:54:23.811Z,16.74
2018-10-05T21:56:54.150Z,16.72
2018-10-05T21:59:24.517Z,16.67
2018-10-05T22:01:54.891Z,16.62
2018-10-05T22:04:25.248Z,16.60
2018-10-05T22:06:55.551Z,16.50
2018-10-05T22:09:25.872Z,16.47
2018-10-05T22:11:56.258Z,16.53
2018-10-05T22:14:26.583Z,16.50
2018-10-05T22:16:56.950Z,16.47
2018-10-05T22:19:27.486Z,16.45
2018-10-05T22:22:03.058Z,16.44
2018-10-05T22:24:33.382Z,16.39
2018-10-05T22:27:03.714Z,16.33
2018-10-05T22:29:34.040Z,16.34
2018-10-05T22:32:05.336Z,16.34
2018-10-05T22:34:35.696Z,16.36
2018-10-05T22:37:06.038Z,16.28
2018-10-05T22:39:36.337Z,16.26
2018-10-05T22:42:06.658Z,16.21
2018-10-05T22:44:37.016Z,16.26
2018-10-05T22:47:07.388Z,16.23
2018-10-05T22:49:37.726Z,16.18
2018-10-05T22:52:08.514Z,16.16
2018-10-05T22:54:38.816Z,16.19
2018-10-05T22:57:09.178Z,16.06
2018-10-05T22:59:39.502Z,16.07
2018-10-05T23:02:09.815Z,16.06
2018-10-05T23:04:40.107Z,16.04
2018-10-05T23:07:10.489Z,16.01
2018-10-05T23:09:40.786Z,15.99
2018-10-05T23:12:11.148Z,16.01
2018-10-05T23:14:41.460Z,15.96
2018-10-05T23:17:11.868Z,15.91
2018-10-05T23:19:42.282Z,15.94
2018-10-05T23:22:12.602Z,15.93
2018-10-05T23:24:42.964Z,15.95
2018-10-05T23:27:13.395Z,15.96
2018-10-05T23:29:43.750Z,15.99
2018-10-05T23:32:14.044Z,15.97
2018-10-05T23:34:44.355Z,15.86
2018-10-05T23:37:14.925Z,15.89
2018-10-05T23:39:45.270Z,15.88
2018-10-05T23:42:15.748Z,15.85
2018-10-05T23:44:46.062Z,15.81
2018-10-05T23:47:16.447Z,15.86
2018-10-05T23:49:46.756Z,15.83
2018-10-05T23:52:34.384Z,15.82
2018-10-05T23:55:05.198Z,15.77
2018-10-05T23:57:36.471Z,15.72
